Time;durP1;ratioP1;P1;durP2;ratioP2;P2;SDS_P1;SDS_P2;PMS_P1;PMS_P2;Temp;Humidity;BMP_temperature;BMP_pressure;BME280_temperature;BME280_humidity;BME280_pressure;Samples;Min_cycle;Max_cycle;Signal;HPM_P1;HPM_P2
2023/04/23 00:00:41;;;;;;;3.80;3.47;;;13.10;54.40;;;;;;5033897;28;20532;-47
2023/04/23 00:03:11;;;;;;;5.67;3.67;;;13.10;99.90;;;;;;5032553;28;20276;-44
2023/04/23 00:05:38;;;;;;;4.47;3.40;;;13.10;99.90;;;;;;5034415;28;20178;-43
2023/04/23 00:08:04;;;;;;;4.10;3.70;;;13.00;99.90;;;;;;5033141;28;20447;-46
2023/04/23 00:10:30;;;;;;;5.47;4.03;;;13.00;99.90;;;;;;5032157;28;20420;-43
2023/04/23 00:12:56;;;;;;;5.70;3.33;;;13.00;94.20;;;;;;5031046;28;20425;-44
2023/04/23 00:15:22;;;;;;;3.90;3.50;;;13.00;99.90;;;;;;5034315;28;20421;-46
2023/04/23 00:17:48;;;;;;;3.03;2.63;;;13.00;99.90;;;;;;5033345;28;20687;-44
2023/04/23 00:20:15;;;;;;;3.87;3.50;;;13.10;99.90;;;;;;5033750;28;20500;-46
2023/04/23 00:22:41;;;;;;;4.93;3.00;;;13.10;99.90;;;;;;5032688;28;20190;-44
2023/04/23 00:25:08;;;;;;;3.97;3.10;;;13.10;99.90;;;;;;5033068;28;20440;-44
2023/04/23 00:27:33;;;;;;;3.80;3.20;;;13.00;99.90;;;;;;5033342;28;20461;-43
2023/04/23 00:29:59;;;;;;;4.03;3.27;;;13.10;99.90;;;;;;5033461;28;20708;-43
2023/04/23 00:32:24;;;;;;;5.80;3.73;;;13.00;1.00;;;;;;5033487;28;20565;-44
2023/04/23 00:34:50;;;;;;;4.10;3.23;;;13.00;1.00;;;;;;5033596;28;20209;-44
2023/04/23 00:37:16;;;;;;;4.63;3.30;;;13.00;1.00;;;;;;5034845;28;20280;-45
2023/04/23 00:39:42;;;;;;;4.67;2.90;;;13.00;1.00;;;;;;5035686;28;20180;-46
2023/04/23 00:42:11;;;;;;;3.60;3.20;;;12.90;1.00;;;;;;5035646;28;20709;-46
2023/04/23 00:44:37;;;;;;;4.53;3.20;;;12.90;1.00;;;;;;5034713;28;20423;-44
2023/04/23 00:47:04;;;;;;;3.70;2.90;;;12.90;1.00;;;;;;5035826;28;20444;-47
2023/04/23 00:49:30;;;;;;;4.00;3.03;;;12.90;4.50;;;;;;5035223;28;20833;-44
2023/04/23 00:51:55;;;;;;;4.60;3.03;;;12.90;35.80;;;;;;5035167;28;20429;-44
2023/04/23 00:54:21;;;;;;;3.40;2.70;;;12.90;99.90;;;;;;5034354;28;20271;-43
2023/04/23 00:56:47;;;;;;;4.30;3.00;;;12.80;99.90;;;;;;5033247;28;20485;-45
2023/04/23 00:59:14;;;;;;;5.83;3.13;;;12.90;99.90;;;;;;5033809;28;20179;-43
2023/04/23 01:01:40;;;;;;;4.23;3.23;;;12.90;99.90;;;;;;5036010;28;20409;-43
2023/04/23 01:04:06;;;;;;;5.00;2.70;;;12.80;1.00;;;;;;5034348;28;20444;-43
2023/04/23 01:06:32;;;;;;;3.30;3.00;;;12.80;1.00;;;;;;5034451;28;20534;-43
2023/04/23 01:08:57;;;;;;;5.17;3.13;;;12.70;3.30;;;;;;5035670;28;20496;-44
2023/04/23 01:11:23;;;;;;;6.43;3.30;;;12.70;99.60;;;;;;5034049;28;20429;-43
2023/04/23 01:13:49;;;;;;;3.47;2.50;;;12.70;99.90;;;;;;5034141;28;20556;-44
2023/04/23 01:16:15;;;;;;;4.17;3.00;;;12.70;99.90;;;;;;5035069;28;20214;-44
2023/04/23 01:18:41;;;;;;;3.93;3.60;;;12.60;1.00;;;;;;5034542;28;20452;-42
2023/04/23 01:21:09;;;;;;;4.10;2.60;;;12.60;1.00;;;;;;5034737;28;20440;-43
2023/04/23 01:27:00;;;;;;;3.00;2.70;;;12.60;1.00;;;;;;5035817;28;20404;-44
2023/04/23 01:29:26;;;;;;;4.10;2.90;;;12.60;99.90;;;;;;5035082;28;20874;-43
2023/04/23 01:31:52;;;;;;;3.77;3.00;;;12.60;99.90;;;;;;5034563;28;20469;-45
2023/04/23 01:34:19;;;;;;;3.40;2.87;;;12.50;99.90;;;;;;5033530;28;20467;-44
2023/04/23 01:36:45;;;;;;;3.20;2.53;;;12.50;1.00;;;;;;5034861;28;20425;-43
2023/04/23 01:39:11;;;;;;;3.23;2.93;;;12.50;1.00;;;;;;5034256;28;20498;-45
2023/04/23 01:41:36;;;;;;;2.57;2.37;;;12.50;1.00;;;;;;5034361;28;20197;-46
2023/04/23 01:44:02;;;;;;;2.83;2.53;;;12.40;1.00;;;;;;5035077;28;20248;-44
2023/04/23 01:46:28;;;;;;;2.80;2.60;;;12.40;22.70;;;;;;5036796;28;20178;-44
2023/04/23 01:48:53;;;;;;;3.60;2.57;;;12.40;99.90;;;;;;5037190;28;20263;-45
2023/04/23 01:51:19;;;;;;;4.50;3.10;;;12.40;99.90;;;;;;5036982;28;20425;-45
2023/04/23 01:53:45;;;;;;;2.80;2.43;;;12.40;99.90;;;;;;5036549;28;20598;-45
2023/04/23 01:56:10;;;;;;;3.60;2.60;;;12.30;99.90;;;;;;5037847;28;20571;-45
2023/04/23 01:58:36;;;;;;;2.57;2.37;;;12.40;99.90;;;;;;5037550;28;20202;-44
2023/04/23 02:01:02;;;;;;;3.10;2.80;;;12.40;99.90;;;;;;5037128;28;20174;-45
2023/04/23 02:03:29;;;;;;;2.63;2.23;;;12.40;99.90;;;;;;5036260;28;20730;-43
2023/04/23 02:05:55;;;;;;;3.10;2.80;;;12.40;1.00;;;;;;5037105;28;20615;-45
2023/04/23 02:08:21;;;;;;;2.60;2.33;;;12.40;1.00;;;;;;5037893;28;20594;-43
2023/04/23 02:10:47;;;;;;;2.57;2.37;;;12.30;1.00;;;;;;5036209;28;20635;-45
2023/04/23 02:13:13;;;;;;;2.73;2.50;;;12.20;1.00;;;;;;5037584;28;20516;-44
2023/04/23 02:15:39;;;;;;;2.80;2.40;;;12.20;40.40;;;;;;5036909;28;20268;-43
2023/04/23 02:18:05;;;;;;;3.50;1.87;;;12.20;99.90;;;;;;5036495;28;20708;-43
2023/04/23 02:20:31;;;;;;;2.40;2.20;;;12.20;99.90;;;;;;5037155;28;20520;-47
2023/04/23 02:22:56;;;;;;;2.43;2.23;;;12.20;1.00;;;;;;5037611;28;20858;-44
2023/04/23 02:25:22;;;;;;;2.43;2.17;;;12.20;1.00;;;;;;5035999;28;20182;-44
2023/04/23 02:27:48;;;;;;;1.90;1.80;;;12.20;1.00;;;;;;5037157;28;20237;-45
2023/04/23 02:30:14;;;;;;;3.00;2.10;;;12.20;1.00;;;;;;5036397;28;20182;-43
2023/04/23 02:32:41;;;;;;;2.97;2.47;;;12.10;1.00;;;;;;5017438;28;20205;-44
2023/04/23 02:35:08;;;;;;;2.17;1.97;;;12.10;99.90;;;;;;5034080;28;20503;-43
2023/04/23 02:37:34;;;;;;;2.80;1.87;;;12.00;99.90;;;;;;5035038;28;20528;-43
2023/04/23 02:40:00;;;;;;;2.90;2.27;;;12.00;99.90;;;;;;5033856;28;20417;-43
2023/04/23 02:42:25;;;;;;;2.50;2.17;;;11.90;99.90;;;;;;5034065;28;20441;-45
2023/04/23 02:44:51;;;;;;;2.87;2.47;;;11.90;99.90;;;;;;5033266;28;20428;-43
2023/04/23 02:47:17;;;;;;;2.63;2.10;;;11.80;1.00;;;;;;5034281;28;20182;-42
2023/04/23 02:49:42;;;;;;;4.87;2.07;;;11.80;1.00;;;;;;5034793;28;20186;-43
2023/04/23 02:52:08;;;;;;;2.60;2.10;;;11.90;1.00;;;;;;5034792;28;20204;-44
2023/04/23 02:54:35;;;;;;;3.60;1.83;;;11.90;1.00;;;;;;5035455;28;20229;-45
2023/04/23 02:57:02;;;;;;;3.33;1.77;;;11.90;1.00;;;;;;5035939;28;20201;-43
2023/04/23 02:59:27;;;;;;;2.73;2.40;;;11.90;1.00;;;;;;5035548;28;20409;-45
2023/04/23 03:01:53;;;;;;;3.30;1.97;;;11.80;1.00;;;;;;5035145;28;20909;-43
2023/04/23 03:04:19;;;;;;;2.20;2.00;;;11.80;1.00;;;;;;5034695;28;20604;-45
2023/04/23 03:06:45;;;;;;;2.00;1.80;;;11.80;1.00;;;;;;5035172;28;20170;-43
2023/04/23 03:09:11;;;;;;;2.43;2.07;;;11.70;1.00;;;;;;5033845;28;20478;-45
2023/04/23 03:11:37;;;;;;;2.27;1.70;;;11.70;1.00;;;;;;5032316;28;20182;-43
2023/04/23 03:14:02;;;;;;;1.70;1.30;;;11.70;21.90;;;;;;5031866;28;20472;-46
2023/04/23 03:16:30;;;;;;;2.40;1.90;;;11.70;49.30;;;;;;5032852;28;20468;-45
2023/04/23 03:18:55;;;;;;;1.87;1.67;;;11.60;99.90;;;;;;5031616;28;20182;-43
2023/04/23 03:21:21;;;;;;;2.27;1.50;;;11.60;99.90;;;;;;5032319;28;20560;-46
2023/04/23 03:23:47;;;;;;;2.03;1.60;;;11.60;99.90;;;;;;5032855;28;20519;-46
2023/04/23 03:26:12;;;;;;;2.10;1.80;;;11.60;99.90;;;;;;5032146;28;20209;-43
2023/04/23 03:28:38;;;;;;;1.70;1.57;;;11.60;99.90;;;;;;5033099;28;20253;-44
2023/04/23 03:31:04;;;;;;;1.80;1.70;;;11.60;99.90;;;;;;5033113;28;20434;-43
2023/04/23 03:33:29;;;;;;;2.33;2.07;;;11.50;99.90;;;;;;5032599;28;20309;-43
2023/04/23 03:35:55;;;;;;;2.30;2.03;;;11.50;99.90;;;;;;5032637;28;20560;-44
2023/04/23 03:38:20;;;;;;;1.97;1.70;;;11.50;99.90;;;;;;5031555;28;20237;-42
2023/04/23 03:40:46;;;;;;;1.77;1.67;;;11.50;99.90;;;;;;5031815;28;20409;-46
2023/04/23 03:43:12;;;;;;;2.30;1.93;;;11.60;99.90;;;;;;5032379;28;20260;-44
2023/04/23 03:45:37;;;;;;;4.57;2.20;;;11.50;99.90;;;;;;5032225;28;20217;-44
2023/04/23 03:48:03;;;;;;;2.20;1.70;;;11.60;99.90;;;;;;5033237;28;20249;-43
2023/04/23 03:50:29;;;;;;;2.60;1.93;;;11.60;99.90;;;;;;5032744;28;20179;-42
2023/04/23 03:52:54;;;;;;;2.27;1.60;;;11.60;99.90;;;;;;5034518;28;20187;-43
2023/04/23 03:55:20;;;;;;;3.10;2.40;;;11.50;99.90;;;;;;5034752;28;20292;-43
2023/04/23 03:57:46;;;;;;;2.90;2.07;;;11.50;99.90;;;;;;5034607;28;20188;-44
2023/04/23 04:00:12;;;;;;;2.43;1.90;;;11.50;99.90;;;;;;5035990;28;20429;-44
2023/04/23 04:02:38;;;;;;;3.80;2.17;;;11.50;99.90;;;;;;5036450;28;20237;-43
2023/04/23 04:05:05;;;;;;;2.30;2.10;;;11.50;99.90;;;;;;5036209;28;20872;-43
2023/04/23 04:07:30;;;;;;;2.57;2.37;;;11.50;99.90;;;;;;5036328;28;20448;-44
2023/04/23 04:09:56;;;;;;;2.33;2.10;;;11.50;99.90;;;;;;5036629;28;20703;-43
2023/04/23 04:12:21;;;;;;;2.50;2.30;;;11.50;99.90;;;;;;5035683;28;20184;-43
2023/04/23 04:14:47;;;;;;;2.63;2.40;;;11.40;99.90;;;;;;5035997;28;20550;-44
2023/04/23 04:17:14;;;;;;;3.63;2.53;;;11.40;99.90;;;;;;5035068;28;20171;-44
2023/04/23 04:19:41;;;;;;;2.80;2.20;;;11.30;99.90;;;;;;5035867;28;20564;-43
2023/04/23 04:22:07;;;;;;;1.90;1.70;;;11.30;99.90;;;;;;5035408;28;20978;-43
2023/04/23 04:24:34;;;;;;;2.87;2.20;;;11.30;99.90;;;;;;5033408;28;20517;-43
2023/04/23 04:27:00;;;;;;;2.53;2.10;;;11.30;99.90;;;;;;5034103;28;20441;-45
2023/04/23 04:29:26;;;;;;;2.27;2.07;;;11.30;99.90;;;;;;5035098;28;20803;-43
2023/04/23 04:31:53;;;;;;;3.10;2.63;;;11.30;99.90;;;;;;5034600;28;20421;-42
2023/04/23 04:34:19;;;;;;;2.43;2.00;;;11.30;99.90;;;;;;5037243;28;20206;-44
2023/04/23 04:36:45;;;;;;;2.73;2.50;;;11.30;99.90;;;;;;5038409;28;20448;-46
2023/04/23 04:39:12;;;;;;;3.03;2.43;;;11.30;99.90;;;;;;5038984;28;20201;-43
2023/04/23 04:41:40;;;;;;;4.40;2.17;;;11.20;99.90;;;;;;5039665;28;20505;-45
2023/04/23 04:44:09;;;;;;;3.33;1.80;;;11.20;99.90;;;;;;5038429;28;20425;-44
2023/04/23 04:46:39;;;;;;;2.20;2.00;;;11.20;99.90;;;;;;5039246;28;20414;-44
2023/04/23 04:49:08;;;;;;;2.63;2.03;;;11.20;99.90;;;;;;5039831;28;20679;-43
2023/04/23 04:51:36;;;;;;;3.10;2.30;;;11.20;99.90;;;;;;5039530;28;20416;-44
2023/04/23 04:54:02;;;;;;;2.10;1.80;;;11.20;99.90;;;;;;5039393;28;20870;-43
2023/04/23 04:56:28;;;;;;;2.30;2.10;;;11.20;99.90;;;;;;5039413;28;20429;-43
2023/04/23 04:58:54;;;;;;;2.10;1.90;;;11.20;99.90;;;;;;5038952;28;20493;-45
2023/04/23 05:01:21;;;;;;;2.30;1.73;;;11.20;99.90;;;;;;5038764;28;20418;-45
2023/04/23 05:03:47;;;;;;;1.93;1.80;;;11.30;99.90;;;;;;5039711;28;20417;-44
2023/04/23 05:06:13;;;;;;;2.40;2.03;;;11.30;99.90;;;;;;5039233;28;20528;-45
2023/04/23 05:08:38;;;;;;;3.67;1.70;;;11.30;99.90;;;;;;5039718;28;20182;-43
2023/04/23 05:11:04;;;;;;;3.03;1.90;;;11.40;99.90;;;;;;5039557;28;20521;-45
2023/04/23 05:13:30;;;;;;;1.77;1.17;;;11.30;99.90;;;;;;5040201;28;20217;-43
2023/04/23 05:15:55;;;;;;;2.23;1.67;;;11.40;99.90;;;;;;5039588;28;20179;-43
2023/04/23 05:18:21;;;;;;;1.90;1.70;;;11.40;99.90;;;;;;5039014;28;20182;-44
2023/04/23 05:20:46;;;;;;;1.53;1.37;;;11.50;99.90;;;;;;5038589;28;20557;-44
2023/04/23 05:23:12;;;;;;;3.33;1.57;;;11.60;99.90;;;;;;5048902;28;20460;-44
2023/04/23 05:25:38;;;;;;;2.73;1.50;;;11.60;99.90;;;;;;5058634;28;20182;-42
2023/04/23 05:28:03;;;;;;;1.87;1.70;;;11.70;99.90;;;;;;5058241;28;20218;-45
2023/04/23 05:30:30;;;;;;;2.20;1.70;;;11.70;99.90;;;;;;5057435;28;20185;-43
2023/04/23 05:32:56;;;;;;;2.00;1.60;;;11.80;99.90;;;;;;5056686;28;20188;-47
2023/04/23 05:35:21;;;;;;;1.90;1.37;;;11.80;57.00;;;;;;5056148;28;20472;-43
2023/04/23 05:37:47;;;;;;;2.10;1.80;;;11.90;99.90;;;;;;5055801;28;20197;-43
2023/04/23 05:40:12;;;;;;;1.50;1.30;;;12.10;17.50;;;;;;5056572;28;20247;-43
2023/04/23 05:42:38;;;;;;;1.93;1.50;;;12.10;1.00;;;;;;5056180;28;20181;-43
2023/04/23 05:45:05;;;;;;;2.80;1.57;;;12.20;1.00;;;;;;5055542;28;20323;-43
2023/04/23 05:47:30;;;;;;;1.30;1.20;;;12.30;1.00;;;;;;5056767;28;20478;-42
2023/04/23 05:49:56;;;;;;;1.33;1.10;;;12.30;1.00;;;;;;5058251;28;20516;-44
2023/04/23 05:52:22;;;;;;;2.37;1.37;;;12.30;1.00;;;;;;5057852;28;20280;-43
2023/04/23 05:54:48;;;;;;;1.70;1.40;;;12.30;1.00;;;;;;5058352;28;20277;-50
2023/04/23 05:57:14;;;;;;;3.53;1.47;;;12.30;1.00;;;;;;5058731;28;20474;-44
2023/04/23 05:59:39;;;;;;;1.93;1.50;;;12.40;1.00;;;;;;5057655;28;20494;-46
2023/04/23 06:02:06;;;;;;;1.67;1.53;;;12.50;1.00;;;;;;5049981;28;20186;-43
2023/04/23 06:04:31;;;;;;;1.77;1.30;;;12.60;99.90;;;;;;5044442;28;20602;-43
2023/04/23 06:06:57;;;;;;;1.33;1.23;;;12.80;99.90;;;;;;5055151;28;20511;-44
2023/04/23 06:09:23;;;;;;;1.67;1.10;;;12.80;19.70;;;;;;5056461;28;20182;-45
2023/04/23 06:11:49;;;;;;;2.93;1.00;;;12.80;3.60;;;;;;5056570;28;20215;-45
2023/04/23 06:14:15;;;;;;;1.40;1.00;;;12.80;1.00;;;;;;5055339;28;20201;-43
2023/04/23 06:16:41;;;;;;;2.00;1.60;;;12.90;28.30;;;;;;5057219;28;20415;-43
2023/04/23 06:19:06;;;;;;;1.90;1.20;;;13.00;99.90;;;;;;5057183;28;20857;-44
2023/04/23 06:21:32;;;;;;;4.40;1.23;;;13.00;99.90;;;;;;5057908;28;20174;-43
2023/04/23 06:23:57;;;;;;;1.50;1.00;;;13.10;99.90;;;;;;5056061;28;20196;-45
2023/04/23 06:26:23;;;;;;;1.10;0.87;;;13.20;99.90;;;;;;5056092;28;20436;-43
2023/04/23 06:28:49;;;;;;;2.13;1.30;;;13.20;1.00;;;;;;5056643;28;20237;-45
2023/04/23 06:31:14;;;;;;;1.90;1.10;;;13.30;1.00;;;;;;5058837;28;20178;-46
2023/04/23 06:33:40;;;;;;;2.60;1.30;;;13.10;99.90;;;;;;5058082;28;20455;-45
2023/04/23 06:36:09;;;;;;;1.50;1.00;;;13.30;1.00;;;;;;5057236;28;20170;-43
2023/04/23 06:38:35;;;;;;;1.30;0.90;;;13.30;68.40;;;;;;5056449;28;20184;-44
2023/04/23 06:41:02;;;;;;;1.03;0.83;;;13.30;99.90;;;;;;5056686;28;20416;-43
2023/04/23 06:43:28;;;;;;;1.70;1.10;;;13.20;99.90;;;;;;5054046;28;20432;-43
2023/04/23 06:45:54;;;;;;;1.10;0.80;;;13.30;1.00;;;;;;5055700;28;20698;-43
2023/04/23 06:48:21;;;;;;;1.20;0.90;;;13.40;1.00;;;;;;5056613;28;20215;-42
2023/04/23 06:50:47;;;;;;;3.13;0.97;;;13.60;1.00;;;;;;5057759;28;20177;-42
2023/04/23 06:53:13;;;;;;;1.30;0.73;;;13.80;99.90;;;;;;5058075;28;20881;-43
2023/04/23 06:55:38;;;;;;;2.50;1.30;;;14.00;1.00;;;;;;5057918;28;20499;-43
2023/04/23 06:58:06;;;;;;;1.83;0.90;;;14.20;99.90;;;;;;5055994;28;20547;-45
2023/04/23 07:00:31;;;;;;;1.20;1.03;;;14.20;1.00;;;;;;5057515;28;20243;-45
2023/04/23 07:02:57;;;;;;;1.47;0.90;;;13.90;1.00;;;;;;5055694;28;20463;-45
2023/04/23 07:05:23;;;;;;;1.83;0.90;;;13.80;99.90;;;;;;5056631;28;20189;-43
2023/04/23 07:07:48;;;;;;;2.30;0.80;;;13.80;99.90;;;;;;5056397;28;20185;-45
2023/04/23 07:10:14;;;;;;;2.30;0.93;;;13.80;99.90;;;;;;5054902;28;20192;-43
2023/04/23 07:12:40;;;;;;;1.20;0.80;;;13.80;1.00;;;;;;5053697;28;20413;-44
2023/04/23 07:15:07;;;;;;;1.30;1.00;;;13.80;1.00;;;;;;5054739;28;20530;-45
2023/04/23 07:17:33;;;;;;;1.20;0.90;;;14.00;58.30;;;;;;5053523;28;20574;-43
2023/04/23 07:19:59;;;;;;;1.77;0.83;;;14.00;56.40;;;;;;5054329;28;20408;-45
2023/04/23 07:22:25;;;;;;;1.53;1.00;;;13.90;1.00;;;;;;5055234;28;20473;-44
2023/04/23 07:24:51;;;;;;;1.53;1.00;;;14.10;1.00;;;;;;5054290;28;20665;-44
2023/04/23 07:27:17;;;;;;;2.70;1.50;;;14.30;1.00;;;;;;5055727;28;20754;-43
2023/04/23 07:29:43;;;;;;;2.17;1.00;;;14.30;99.90;;;;;;5055757;28;20440;-46
2023/04/23 07:32:08;;;;;;;1.90;1.30;;;14.50;99.90;;;;;;5054076;28;20431;-43
2023/04/23 07:34:35;;;;;;;2.10;1.20;;;14.80;1.00;;;;;;5052748;28;20217;-44
2023/04/23 07:37:01;;;;;;;1.80;1.30;;;14.80;1.00;;;;;;5052796;28;20516;-45
2023/04/23 07:39:27;;;;;;;1.50;1.30;;;14.80;99.90;;;;;;5054987;28;20486;-44
2023/04/23 07:41:53;;;;;;;2.00;1.40;;;14.80;99.90;;;;;;5054163;28;20621;-44
2023/04/23 07:44:18;;;;;;;2.40;1.33;;;14.70;99.90;;;;;;5053299;28;20366;-43
2023/04/23 07:46:44;;;;;;;1.50;1.10;;;14.60;99.90;;;;;;5053086;28;20181;-43
2023/04/23 07:49:09;;;;;;;1.77;1.27;;;14.50;99.90;;;;;;5053618;28;20193;-44
2023/04/23 07:51:35;;;;;;;1.97;1.10;;;14.70;1.00;;;;;;5052554;28;20280;-45
2023/04/23 07:54:01;;;;;;;2.60;1.33;;;14.90;8.50;;;;;;5053019;28;20216;-45
2023/04/23 07:56:26;;;;;;;3.00;1.30;;;15.20;1.00;;;;;;5054415;28;20550;-45
2023/04/23 07:58:52;;;;;;;1.50;1.10;;;15.40;1.00;;;;;;5055888;28;20174;-45
2023/04/23 08:01:18;;;;;;;2.47;1.30;;;15.60;99.90;;;;;;5052405;28;20197;-45
2023/04/23 08:03:44;;;;;;;1.60;1.27;;;15.90;99.90;;;;;;5053775;28;20481;-47
2023/04/23 08:06:13;;;;;;;2.07;1.27;;;15.90;99.90;;;;;;5054512;28;20435;-44
2023/04/23 08:08:39;;;;;;;1.50;1.10;;;15.90;99.90;;;;;;5055936;28;20504;-43
2023/04/23 08:11:06;;;;;;;1.70;1.47;;;16.20;99.90;;;;;;5059196;28;20519;-45
2023/04/23 08:13:31;;;;;;;1.80;1.30;;;16.30;99.90;;;;;;5058610;28;20211;-43
2023/04/23 08:15:57;;;;;;;4.07;1.77;;;16.30;99.90;;;;;;5059911;28;20870;-45
2023/04/23 08:18:22;;;;;;;1.50;1.17;;;16.00;99.90;;;;;;5059722;28;20174;-46
2023/04/23 08:20:48;;;;;;;1.87;1.13;;;15.80;99.90;;;;;;5059411;28;20177;-43
2023/04/23 08:23:14;;;;;;;1.40;1.20;;;15.80;99.90;;;;;;5059830;28;20173;-44
2023/04/23 08:25:40;;;;;;;2.63;1.53;;;15.90;99.90;;;;;;5057816;28;20188;-46
2023/04/23 08:28:06;;;;;;;1.70;1.00;;;15.70;68.30;;;;;;5050781;28;20476;-43
2023/04/23 08:30:31;;;;;;;2.23;1.43;;;15.60;95.20;;;;;;5038340;28;20174;-44
2023/04/23 08:32:57;;;;;;;3.23;1.37;;;15.50;99.90;;;;;;5037246;28;20504;-43
2023/04/23 08:35:24;;;;;;;1.80;1.30;;;15.60;99.90;;;;;;5038888;28;20218;-44
2023/04/23 08:37:49;;;;;;;3.37;1.40;;;15.60;99.90;;;;;;5039048;28;20454;-44
2023/04/23 08:40:15;;;;;;;1.80;1.33;;;16.00;99.90;;;;;;5038915;28;20730;-43
2023/04/23 08:42:55;;;;;;;1.50;1.17;;;16.30;99.90;;;;;;5037700;28;20201;-43
2023/04/23 08:45:21;;;;;;;1.60;1.50;;;16.40;64.20;;;;;;5036346;28;20421;-42
2023/04/23 08:47:46;;;;;;;2.27;1.50;;;16.50;33.60;;;;;;5038058;28;20436;-47
2023/04/23 08:50:16;;;;;;;2.13;1.80;;;16.30;33.30;;;;;;5038392;28;20300;-45
2023/04/23 08:52:48;;;;;;;1.97;1.40;;;16.70;21.60;;;;;;5034618;28;20560;-44
2023/04/23 08:55:14;;;;;;;1.93;1.50;;;16.90;1.00;;;;;;5035344;28;20488;-46
2023/04/23 08:57:40;;;;;;;2.90;1.27;;;16.90;1.00;;;;;;5033473;28;20497;-44
2023/04/23 09:00:09;;;;;;;3.77;1.50;;;16.80;1.00;;;;;;5035889;28;20405;-43
2023/04/23 09:02:36;;;;;;;2.03;1.83;;;16.80;1.00;;;;;;5034393;28;20424;-44
2023/04/23 09:05:03;;;;;;;3.23;2.90;;;16.90;1.00;;;;;;5032336;28;20540;-43
2023/04/23 09:07:29;;;;;;;5.00;2.90;;;16.80;1.00;;;;;;5035332;28;20455;-43
2023/04/23 09:09:55;;;;;;;2.70;2.50;;;16.80;1.00;;;;;;5035033;28;20425;-44
2023/04/23 09:12:21;;;;;;;3.03;1.73;;;16.70;1.00;;;;;;5036157;28;20205;-46
2023/04/23 09:14:49;;;;;;;2.33;1.63;;;17.10;1.00;;;;;;5035668;28;20801;-46
2023/04/23 09:17:14;;;;;;;2.53;1.57;;;17.40;1.00;;;;;;5039491;28;20538;-45
2023/04/23 09:19:40;;;;;;;2.33;1.93;;;17.60;1.00;;;;;;5036349;28;20449;-47
2023/04/23 09:22:07;;;;;;;2.90;1.80;;;17.70;1.00;;;;;;5034998;28;20460;-45
2023/04/23 09:24:33;;;;;;;3.00;2.53;;;17.90;1.00;;;;;;5035625;28;20424;-46
2023/04/23 09:26:59;;;;;;;2.27;1.70;;;17.80;1.00;;;;;;5035764;28;20523;-45
2023/04/23 09:29:25;;;;;;;3.20;2.70;;;17.90;1.00;;;;;;5037315;28;20586;-46
2023/04/23 09:31:55;;;;;;;3.27;2.43;;;18.10;1.00;;;;;;5036575;28;20167;-46
2023/04/23 09:34:22;;;;;;;2.70;1.97;;;18.20;1.00;;;;;;5035489;28;20485;-44
2023/04/23 09:36:49;;;;;;;1.70;1.50;;;18.40;1.00;;;;;;5035833;28;20804;-46
2023/04/23 09:39:23;;;;;;;5.67;2.13;;;18.50;1.00;;;;;;5036691;28;20887;-45
2023/04/23 09:41:51;;;;;;;1.83;1.40;;;19.00;1.00;;;;;;5036753;28;20409;-46
2023/04/23 09:44:18;;;;;;;2.47;1.80;;;19.80;1.00;;;;;;5019399;28;20459;-47
2023/04/23 09:46:44;;;;;;;1.80;1.50;;;20.00;1.00;;;;;;5042899;28;20443;-49
2023/04/23 09:49:11;;;;;;;1.83;1.17;;;20.10;1.00;;;;;;5056248;28;20412;-45
2023/04/23 09:51:39;;;;;;;1.97;1.77;;;20.40;1.00;;;;;;5055748;28;20477;-46
2023/04/23 09:54:14;;;;;;;2.07;1.50;;;20.80;1.00;;;;;;5057047;28;20468;-46
2023/04/23 09:56:41;;;;;;;2.30;1.87;;;20.40;1.00;;;;;;5054177;28;20435;-47
2023/04/23 09:59:29;;;;;;;2.40;1.70;;;20.20;1.00;;;;;;5055318;28;20524;-44
2023/04/23 10:01:56;;;;;;;2.57;1.20;;;20.40;1.00;;;;;;5056235;28;20428;-44
2023/04/23 10:04:23;;;;;;;2.20;1.60;;;20.50;1.00;;;;;;5053996;28;20416;-47
2023/04/23 10:06:54;;;;;;;2.07;1.53;;;20.30;1.00;;;;;;5055574;28;20453;-44
2023/04/23 10:09:23;;;;;;;2.10;1.30;;;20.30;1.00;;;;;;5055274;28;20412;-45
2023/04/23 10:11:55;;;;;;;2.07;1.30;;;20.10;1.00;;;;;;5054905;28;20408;-44
2023/04/23 10:14:21;;;;;;;1.70;1.50;;;20.00;1.00;;;;;;5054731;28;20498;-44
2023/04/23 10:16:50;;;;;;;1.97;1.43;;;19.40;1.00;;;;;;5052913;28;20499;-48
2023/04/23 10:19:23;;;;;;;1.67;1.20;;;19.10;1.00;;;;;;5055586;28;20818;-44
2023/04/23 10:21:54;;;;;;;1.87;1.20;;;19.30;1.00;;;;;;5055560;28;20438;-47
2023/04/23 10:24:29;;;;;;;1.30;1.20;;;19.10;1.00;;;;;;5055105;28;20423;-45
2023/04/23 10:26:59;;;;;;;2.07;1.30;;;19.00;1.00;;;;;;5055195;28;20931;-47
2023/04/23 10:29:32;;;;;;;1.20;1.07;;;19.40;1.00;;;;;;5055140;28;20916;-48
2023/04/23 10:32:00;;;;;;;2.73;1.50;;;19.80;1.00;;;;;;5055883;28;20841;-46
2023/04/23 10:34:28;;;;;;;1.30;1.20;;;20.00;1.00;;;;;;5055803;28;20492;-45
2023/04/23 10:36:55;;;;;;;1.93;1.20;;;19.90;1.00;;;;;;5056040;28;20432;-44
2023/04/23 10:39:23;;;;;;;1.40;1.00;;;20.00;1.00;;;;;;5056078;28;20424;-45
2023/04/23 10:41:49;;;;;;;1.60;1.20;;;20.20;1.00;;;;;;5054075;28;20412;-45
2023/04/23 10:44:20;;;;;;;2.30;1.20;;;20.20;1.00;;;;;;5055348;28;20509;-44
2023/04/23 10:46:56;;;;;;;2.70;1.40;;;20.00;1.00;;;;;;5055837;28;20427;-45
2023/04/23 10:49:25;;;;;;;2.77;1.27;;;20.10;1.00;;;;;;5055847;28;20443;-45
2023/04/23 10:51:59;;;;;;;2.50;1.17;;;20.20;1.00;;;;;;5053477;28;20459;-43
2023/04/23 10:54:29;;;;;;;1.90;1.30;;;20.30;1.00;;;;;;5054159;28;20789;-44
2023/04/23 10:57:05;;;;;;;2.23;1.30;;;20.40;1.00;;;;;;5055390;28;20454;-43
2023/04/23 10:59:32;;;;;;;1.60;1.07;;;21.00;1.00;;;;;;5052861;28;20415;-43
2023/04/23 11:02:08;;;;;;;1.33;1.00;;;21.70;1.00;;;;;;5053880;28;20527;-44
2023/04/23 11:04:35;;;;;;;1.70;1.03;;;22.10;1.00;;;;;;5054023;28;20424;-43
2023/04/23 11:07:08;;;;;;;1.27;1.00;;;22.10;1.00;;;;;;5052471;28;20499;-44
2023/04/23 11:09:47;;;;;;;1.20;0.70;;;21.70;1.00;;;;;;5052749;28;20488;-43
2023/04/23 11:12:25;;;;;;;1.30;1.10;;;21.30;1.00;;;;;;5054379;28;20428;-43
2023/04/23 11:14:53;;;;;;;1.33;0.90;;;21.50;1.00;;;;;;5053853;28;21011;-48
2023/04/23 11:17:46;;;;;;;2.60;1.20;;;21.60;1.00;;;;;;5055114;28;20432;-47
2023/04/23 11:20:19;;;;;;;1.97;1.30;;;21.40;1.00;;;;;;5053544;28;20979;-49
2023/04/23 11:22:46;;;;;;;2.13;1.10;;;20.80;1.00;;;;;;5051575;28;20436;-49
2023/04/23 11:25:19;;;;;;;2.73;1.30;;;20.80;1.00;;;;;;5051470;28;20411;-47
2023/04/23 11:27:46;;;;;;;1.50;1.00;;;21.20;1.00;;;;;;5051880;28;20829;-47
2023/04/23 11:30:20;;;;;;;1.97;1.20;;;20.90;1.00;;;;;;5053269;28;20433;-47
2023/04/23 11:32:48;;;;;;;1.60;1.10;;;20.80;1.00;;;;;;5052851;28;20428;-47
2023/04/23 11:35:15;;;;;;;2.20;1.07;;;20.90;1.00;;;;;;5053366;28;20471;-49
2023/04/23 11:37:42;;;;;;;1.43;0.93;;;21.10;1.00;;;;;;5053877;28;20515;-48
2023/04/23 11:40:13;;;;;;;2.90;1.20;;;21.50;1.00;;;;;;5055142;28;20424;-46
2023/04/23 11:42:46;;;;;;;1.70;1.13;;;21.60;1.00;;;;;;5054821;28;20413;-47
2023/04/23 11:45:24;;;;;;;1.30;0.97;;;21.10;1.00;;;;;;5054642;28;20424;-47
2023/04/23 11:47:54;;;;;;;1.40;1.17;;;21.20;1.00;;;;;;5055964;28;20712;-46
2023/04/23 11:50:21;;;;;;;2.13;1.00;;;21.40;1.00;;;;;;5054950;28;20503;-47
2023/04/23 11:52:47;;;;;;;2.20;1.17;;;21.50;1.00;;;;;;5053281;28;20566;-49
2023/04/23 11:55:13;;;;;;;1.73;1.17;;;22.10;1.00;;;;;;5052044;28;20578;-47
2023/04/23 11:57:44;;;;;;;2.17;1.13;;;22.30;1.00;;;;;;5053287;28;20178;-48
2023/04/23 12:00:19;;;;;;;1.30;1.00;;;22.40;1.00;;;;;;5053298;28;20186;-47
2023/04/23 12:02:58;;;;;;;1.83;1.13;;;22.70;1.00;;;;;;5052956;28;20472;-47
2023/04/23 12:05:32;;;;;;;2.03;1.30;;;22.40;1.00;;;;;;5054451;28;20439;-48
2023/04/23 12:08:15;;;;;;;1.30;1.20;;;22.50;1.00;;;;;;5053797;28;20420;-47
2023/04/23 12:10:54;;;;;;;1.23;1.10;;;21.90;1.00;;;;;;5054173;28;20428;-47
2023/04/23 12:13:28;;;;;;;1.90;1.73;;;21.80;1.00;;;;;;5054502;28;20424;-48
2023/04/23 12:16:02;;;;;;;1.47;1.20;;;21.70;1.00;;;;;;5053734;28;20459;-47
2023/04/23 12:18:37;;;;;;;2.03;1.00;;;21.40;1.00;;;;;;5052231;28;20412;-47
2023/04/23 12:21:13;;;;;;;1.50;1.03;;;20.90;1.00;;;;;;5052056;28;20499;-49
2023/04/23 12:23:43;;;;;;;2.47;1.20;;;20.70;1.00;;;;;;5052933;28;20408;-47
2023/04/23 12:26:14;;;;;;;1.90;1.00;;;20.80;1.00;;;;;;5052851;28;20408;-48
2023/04/23 12:29:05;;;;;;;1.30;1.00;;;21.60;1.00;;;;;;5051792;28;20456;-47
2023/04/23 12:31:31;;;;;;;1.50;1.10;;;22.20;1.00;;;;;;5046884;28;20416;-46
2023/04/23 12:34:06;;;;;;;1.67;1.47;;;22.30;1.00;;;;;;5053380;28;20495;-47
2023/04/23 12:36:33;;;;;;;1.63;1.27;;;22.60;1.00;;;;;;5052557;28;20504;-49
2023/04/23 12:39:25;;;;;;;1.53;1.23;;;22.70;1.00;;;;;;5053203;28;20695;-50
2023/04/23 12:41:52;;;;;;;1.67;1.47;;;22.70;1.00;;;;;;5052650;28;20440;-47
2023/04/23 12:44:19;;;;;;;2.03;1.60;;;22.80;1.00;;;;;;5052506;28;20505;-46
2023/04/23 12:46:44;;;;;;;1.37;1.07;;;23.20;1.00;;;;;;5053249;28;20466;-45
2023/04/23 12:49:10;;;;;;;2.03;1.17;;;23.40;1.00;;;;;;5052687;28;20432;-47
2023/04/23 12:51:35;;;;;;;1.30;1.00;;;23.40;1.00;;;;;;5051067;28;20502;-47
2023/04/23 12:54:01;;;;;;;1.80;1.40;;;23.30;1.00;;;;;;5051070;28;20209;-48
2023/04/23 12:56:27;;;;;;;1.80;1.40;;;22.70;1.00;;;;;;5055151;28;20571;-47